createdAt,value
2017-11-27T00:01:52.823Z,3.40
2017-11-27T00:04:21.540Z,2.80
2017-11-27T00:06:50.727Z,2.70
2017-11-27T00:09:19.660Z,7.87
2017-11-27T00:11:48.331Z,2.97
2017-11-27T00:14:16.749Z,6.30
2017-11-27T00:16:45.140Z,3.87
2017-11-27T00:19:13.858Z,7.20
2017-11-27T00:21:43.050Z,7.13
2017-11-27T00:24:11.618Z,6.57
2017-11-27T00:26:40.251Z,8.93
2017-11-27T00:29:08.618Z,7.57
2017-11-27T00:31:37.039Z,2.97
2017-11-27T00:34:05.676Z,5.80
2017-11-27T00:36:34.069Z,5.20
2017-11-27T00:39:02.500Z,6.30
2017-11-27T00:41:31.016Z,6.37
2017-11-27T00:44:00.168Z,3.40
2017-11-27T00:46:28.556Z,3.40
2017-11-27T00:48:57.176Z,4.60
2017-11-27T00:51:25.609Z,4.20
2017-11-27T00:53:54.037Z,6.47
2017-11-27T00:56:29.511Z,6.30
2017-11-27T00:58:57.935Z,4.23
2017-11-27T01:01:26.433Z,3.40
2017-11-27T01:03:55.819Z,4.43
2017-11-27T01:06:24.230Z,3.93
2017-11-27T01:08:52.662Z,5.77
2017-11-27T01:11:21.459Z,4.70
2017-11-27T01:13:49.904Z,4.07
2017-11-27T01:16:18.319Z,6.03
2017-11-27T01:18:46.936Z,3.93
2017-11-27T01:21:16.122Z,5.40
2017-11-27T01:23:45.265Z,3.53
2017-11-27T01:26:13.903Z,3.50
2017-11-27T01:28:43.062Z,3.50
2017-11-27T01:31:11.529Z,4.80
2017-11-27T01:33:40.100Z,5.37
2017-11-27T01:36:08.512Z,4.10
2017-11-27T01:38:37.293Z,5.30
2017-11-27T01:41:05.908Z,5.70
2017-11-27T01:43:34.326Z,4.20
2017-11-27T01:46:02.756Z,4.97
2017-11-27T01:48:31.503Z,3.50
2017-11-27T01:50:59.987Z,5.87
2017-11-27T01:53:28.423Z,6.10
2017-11-27T01:55:57.771Z,4.10
2017-11-27T01:58:26.239Z,5.40
2017-11-27T02:00:54.660Z,6.20
2017-11-27T02:03:23.380Z,3.80
2017-11-27T02:05:51.801Z,5.87
2017-11-27T02:08:20.213Z,4.80
2017-11-27T02:10:48.670Z,4.13
2017-11-27T02:13:17.566Z,3.00
2017-11-27T02:15:45.999Z,4.73
2017-11-27T02:18:14.724Z,2.80
2017-11-27T02:20:43.186Z,5.40
2017-11-27T02:23:11.586Z,4.30
2017-11-27T02:25:40.916Z,3.83
2017-11-27T02:28:09.374Z,3.40
2017-11-27T02:30:37.847Z,5.53
2017-11-27T02:33:06.662Z,6.13
2017-11-27T02:35:35.039Z,2.47
2017-11-27T02:38:03.469Z,4.77
2017-11-27T02:40:31.940Z,2.63
2017-11-27T02:43:00.344Z,4.20
2017-11-27T02:45:28.769Z,3.30
2017-11-27T02:47:57.600Z,5.17
2017-11-27T02:50:26.031Z,5.03
2017-11-27T02:52:54.558Z,3.20
2017-11-27T02:55:23.207Z,2.40
2017-11-27T02:57:51.584Z,3.37
2017-11-27T03:00:20.007Z,5.00
2017-11-27T03:02:48.420Z,2.10
2017-11-27T03:05:16.892Z,4.53
2017-11-27T03:07:45.333Z,4.50
2017-11-27T03:10:13.829Z,3.13
2017-11-27T03:12:42.203Z,1.83
2017-11-27T03:15:10.959Z,3.10
2017-11-27T03:17:40.363Z,3.57
2017-11-27T03:20:09.536Z,2.70
2017-11-27T03:22:37.937Z,1.60
2017-11-27T03:25:06.497Z,4.03
2017-11-27T03:27:34.893Z,3.70
2017-11-27T03:30:03.324Z,3.00
2017-11-27T03:32:31.965Z,2.80
2017-11-27T03:35:01.144Z,1.60
2017-11-27T03:37:29.539Z,2.83
2017-11-27T03:39:58.770Z,1.77
2017-11-27T03:42:27.367Z,3.57
2017-11-27T03:44:56.558Z,2.37
2017-11-27T03:47:25.288Z,2.37
2017-11-27T03:49:53.668Z,3.30
2017-11-27T03:52:22.080Z,2.13
2017-11-27T03:54:51.286Z,2.70
2017-11-27T03:57:19.717Z,1.00
2017-11-27T03:59:48.121Z,2.20
2017-11-27T04:02:16.936Z,2.83
2017-11-27T04:04:45.334Z,2.73
2017-11-27T04:07:13.971Z,2.97
2017-11-27T04:09:42.795Z,3.53
2017-11-27T04:12:11.231Z,2.57
2017-11-27T04:14:39.636Z,1.77
2017-11-27T04:17:08.398Z,2.43
2017-11-27T04:19:36.818Z,2.53
2017-11-27T04:22:05.225Z,2.67
2017-11-27T04:24:33.859Z,2.63
2017-11-27T04:27:03.026Z,2.60
2017-11-27T04:29:31.503Z,2.53
2017-11-27T04:32:00.206Z,3.07
2017-11-27T04:34:28.621Z,3.20
2017-11-27T04:36:57.076Z,2.23
2017-11-27T04:39:26.304Z,2.47
2017-11-27T04:41:54.745Z,2.00
2017-11-27T04:44:23.960Z,2.37
2017-11-27T04:46:53.383Z,1.77
2017-11-27T04:49:21.776Z,1.40
2017-11-27T04:51:50.288Z,3.13
2017-11-27T04:54:18.723Z,2.10
2017-11-27T04:56:47.253Z,3.03
2017-11-27T04:59:15.570Z,2.00
2017-11-27T05:01:45.042Z,3.03
2017-11-27T05:04:13.436Z,2.37
2017-11-27T05:06:41.822Z,3.70
2017-11-27T05:09:11.200Z,1.70
2017-11-27T05:11:39.579Z,2.53
2017-11-27T05:14:07.994Z,3.03
2017-11-27T05:16:37.310Z,2.40
2017-11-27T05:19:06.076Z,2.00
2017-11-27T05:21:35.409Z,2.40
2017-11-27T05:24:04.065Z,1.97
2017-11-27T05:26:33.205Z,3.13
2017-11-27T05:29:01.673Z,2.10
2017-11-27T05:31:30.215Z,1.83
2017-11-27T05:33:59.384Z,1.70
2017-11-27T05:36:27.792Z,2.50
2017-11-27T05:38:57.149Z,2.70
2017-11-27T05:41:25.555Z,3.20
2017-11-27T05:43:53.926Z,1.70
2017-11-27T05:46:23.070Z,2.57
2017-11-27T05:48:51.448Z,2.27
2017-11-27T05:51:19.841Z,2.13
2017-11-27T05:53:48.464Z,2.00
2017-11-27T05:56:16.915Z,2.20
2017-11-27T05:58:45.336Z,1.93
2017-11-27T06:01:13.912Z,2.30
2017-11-27T06:03:42.293Z,2.00
2017-11-27T06:06:10.705Z,3.33
2017-11-27T06:08:39.440Z,1.93
2017-11-27T06:11:07.920Z,2.93
2017-11-27T06:13:36.315Z,3.20
2017-11-27T06:16:04.838Z,1.93
2017-11-27T06:18:33.223Z,2.37
2017-11-27T06:21:01.972Z,3.17
2017-11-27T06:23:30.510Z,2.47
2017-11-27T06:25:58.914Z,2.33
2017-11-27T06:28:27.309Z,2.77
2017-11-27T06:30:55.873Z,1.53
2017-11-27T06:33:24.315Z,2.67
2017-11-27T06:35:52.806Z,1.80
2017-11-27T06:38:22.227Z,2.20
2017-11-27T06:40:50.642Z,3.10
2017-11-27T06:43:20.654Z,3.23
2017-11-27T06:45:49.576Z,2.60
2017-11-27T06:48:18.008Z,2.20
2017-11-27T06:50:46.566Z,2.03
2017-11-27T06:53:15.518Z,2.60
2017-11-27T06:55:44.717Z,2.50
2017-11-27T06:58:13.887Z,3.00
2017-11-27T07:00:42.571Z,2.13
2017-11-27T07:03:10.982Z,2.70
2017-11-27T07:05:40.185Z,2.37
2017-11-27T07:08:08.721Z,2.30
2017-11-27T07:10:37.106Z,2.90
2017-11-27T07:13:05.573Z,3.03
2017-11-27T07:15:34.263Z,3.20
2017-11-27T07:18:02.653Z,3.27
2017-11-27T07:20:31.072Z,2.33
2017-11-27T07:23:00.569Z,1.60
2017-11-27T07:25:29.800Z,2.33
2017-11-27T07:27:58.215Z,2.87
2017-11-27T07:30:26.675Z,2.50
2017-11-27T07:32:55.055Z,1.67
2017-11-27T07:35:23.481Z,1.60
2017-11-27T07:37:58.330Z,3.10
2017-11-27T07:40:27.482Z,2.60
2017-11-27T07:42:55.866Z,2.30
2017-11-27T07:45:24.325Z,2.27
2017-11-27T07:47:52.769Z,2.23
2017-11-27T07:50:21.223Z,2.40
2017-11-27T07:52:50.746Z,1.77
2017-11-27T07:55:19.914Z,2.57
2017-11-27T07:57:48.324Z,1.93
2017-11-27T08:00:18.044Z,2.70
2017-11-27T08:02:47.222Z,2.67
2017-11-27T08:05:16.431Z,3.10
2017-11-27T08:07:45.114Z,1.37
2017-11-27T08:10:13.557Z,2.37
2017-11-27T08:12:42.097Z,2.37
2017-11-27T08:15:10.874Z,2.47
2017-11-27T08:17:39.347Z,1.93
2017-11-27T08:20:07.728Z,1.83
2017-11-27T08:22:36.513Z,2.73
2017-11-27T08:25:05.292Z,1.80
2017-11-27T08:27:33.707Z,1.37
2017-11-27T08:30:03.357Z,2.47
2017-11-27T08:32:31.834Z,3.10
2017-11-27T08:35:01.136Z,2.60
2017-11-27T08:37:29.661Z,2.20
2017-11-27T08:39:58.667Z,2.60
2017-11-27T08:42:27.096Z,2.50
2017-11-27T08:44:55.866Z,2.90
2017-11-27T08:47:24.407Z,2.73
2017-11-27T08:49:52.930Z,2.97
2017-11-27T08:52:21.650Z,3.03
2017-11-27T08:54:50.872Z,2.00
2017-11-27T08:57:19.366Z,2.43
2017-11-27T08:59:47.859Z,3.30
2017-11-27T09:02:16.347Z,3.67
2017-11-27T09:04:44.776Z,3.40
2017-11-27T09:07:14.187Z,2.20
2017-11-27T09:09:43.381Z,2.93
2017-11-27T09:12:11.852Z,2.93
2017-11-27T09:14:41.242Z,2.83
2017-11-27T09:17:09.738Z,2.70
2017-11-27T09:19:39.706Z,2.73
2017-11-27T09:22:08.201Z,2.53
2017-11-27T09:24:36.670Z,3.23
2017-11-27T09:27:05.496Z,2.60
2017-11-27T09:29:34.029Z,3.27
2017-11-27T09:32:02.495Z,4.00
2017-11-27T09:34:31.017Z,1.97
2017-11-27T09:36:59.573Z,4.07
2017-11-27T09:39:28.113Z,4.03
2017-11-27T09:41:57.371Z,2.80
2017-11-27T09:44:25.872Z,3.00
2017-11-27T09:46:55.307Z,3.07
2017-11-27T09:49:23.804Z,4.30
2017-11-27T09:51:52.847Z,4.30
2017-11-27T09:54:21.325Z,3.17
2017-11-27T09:56:49.764Z,3.77
2017-11-27T09:59:18.390Z,3.57
2017-11-27T10:01:47.512Z,3.17
2017-11-27T10:04:16.746Z,4.10
2017-11-27T10:06:45.529Z,4.43
2017-11-27T10:09:13.953Z,3.27
2017-11-27T10:11:42.396Z,4.77
2017-11-27T10:14:10.961Z,3.77
2017-11-27T10:16:39.484Z,3.77
2017-11-27T10:19:07.893Z,3.00
2017-11-27T10:21:36.625Z,5.67
2017-11-27T10:24:05.067Z,5.40
2017-11-27T10:26:34.235Z,5.97
2017-11-27T10:29:03.713Z,6.00
2017-11-27T10:31:32.185Z,7.63
2017-11-27T10:34:00.658Z,7.17
2017-11-27T10:36:29.141Z,8.23
2017-11-27T10:38:57.658Z,5.47
2017-11-27T10:41:26.493Z,7.73
2017-11-27T10:43:55.874Z,7.93
2017-11-27T10:46:25.082Z,4.83
2017-11-27T10:48:54.246Z,4.83
2017-11-27T10:51:22.870Z,8.23
2017-11-27T10:53:52.108Z,7.37
2017-11-27T10:56:20.616Z,5.53
2017-11-27T10:58:49.338Z,9.33
2017-11-27T11:01:18.558Z,10.07
2017-11-27T11:03:48.008Z,8.37
2017-11-27T11:06:16.900Z,7.67
2017-11-27T11:08:46.122Z,8.10
2017-11-27T11:11:15.335Z,9.10
2017-11-27T11:13:44.724Z,7.20
2017-11-27T11:16:13.984Z,5.80
2017-11-27T11:18:42.440Z,9.10
2017-11-27T11:21:11.268Z,5.67
2017-11-27T11:23:40.467Z,7.40
2017-11-27T11:26:08.924Z,7.47
2017-11-27T11:28:37.736Z,7.80
2017-11-27T11:31:06.901Z,9.63
2017-11-27T11:33:35.375Z,7.87
2017-11-27T11:36:04.059Z,8.10
2017-11-27T11:38:32.502Z,6.70
2017-11-27T11:41:00.936Z,8.40
2017-11-27T11:43:29.686Z,6.13
2017-11-27T11:45:58.181Z,7.03
2017-11-27T11:48:26.588Z,6.83
2017-11-27T11:50:55.090Z,6.90
2017-11-27T11:53:23.531Z,6.53
2017-11-27T11:55:52.149Z,7.33
2017-11-27T11:58:20.796Z,5.73
2017-11-27T12:00:49.815Z,4.83
2017-11-27T12:03:19.237Z,6.50
2017-11-27T12:05:48.781Z,6.57
2017-11-27T12:08:17.972Z,7.00
2017-11-27T12:10:47.756Z,5.23
2017-11-27T12:13:16.202Z,8.60
2017-11-27T12:15:44.776Z,7.40
2017-11-27T12:18:13.223Z,7.37
2017-11-27T12:20:43.048Z,5.10
2017-11-27T12:23:11.501Z,6.23
2017-11-27T12:25:40.728Z,5.17
2017-11-27T12:28:09.389Z,6.40
2017-11-27T12:30:37.823Z,5.80
2017-11-27T12:33:06.772Z,7.10
2017-11-27T12:35:36.082Z,7.37
2017-11-27T12:38:05.370Z,5.00
2017-11-27T12:40:34.604Z,4.70
2017-11-27T12:43:03.274Z,5.97
2017-11-27T12:45:32.350Z,5.37
2017-11-27T12:48:01.550Z,6.27
2017-11-27T12:50:31.062Z,4.87
2017-11-27T12:53:00.314Z,4.87
2017-11-27T12:55:29.040Z,5.43
2017-11-27T12:57:57.691Z,4.17
2017-11-27T13:00:26.117Z,4.33
2017-11-27T13:02:54.552Z,3.60
2017-11-27T13:05:23.276Z,4.13
2017-11-27T13:07:52.490Z,4.10
2017-11-27T13:10:21.376Z,3.33
2017-11-27T13:12:49.929Z,3.00
2017-11-27T13:15:18.375Z,2.90
2017-11-27T13:17:46.817Z,3.00
2017-11-27T13:20:15.309Z,2.00
2017-11-27T13:22:43.815Z,3.30
2017-11-27T13:25:12.220Z,3.30
2017-11-27T13:27:41.076Z,3.30
2017-11-27T13:30:09.489Z,2.37
2017-11-27T13:32:37.900Z,3.23
2017-11-27T13:35:08.136Z,3.47
2017-11-27T13:37:36.978Z,2.50
2017-11-27T13:40:05.412Z,3.10
2017-11-27T13:42:34.056Z,3.10
2017-11-27T13:45:02.515Z,2.30
2017-11-27T13:47:31.030Z,2.60
2017-11-27T13:50:00.260Z,2.37
2017-11-27T13:52:29.552Z,2.00
2017-11-27T13:54:58.830Z,2.90
2017-11-27T13:57:28.297Z,2.70
2017-11-27T13:59:56.993Z,2.53
2017-11-27T14:02:25.382Z,2.37
2017-11-27T14:04:54.080Z,1.73
2017-11-27T14:07:22.470Z,1.57
2017-11-27T14:09:51.632Z,1.80
2017-11-27T14:12:21.560Z,2.00
2017-11-27T14:14:49.992Z,2.37
2017-11-27T14:17:18.407Z,1.90
2017-11-27T14:19:46.976Z,2.07
2017-11-27T14:22:15.375Z,1.60
2017-11-27T14:24:44.868Z,1.77
2017-11-27T14:27:14.269Z,2.17
2017-11-27T14:29:42.690Z,1.57
2017-11-27T14:32:11.861Z,1.53
2017-11-27T14:34:40.601Z,1.30
2017-11-27T14:37:09.316Z,1.73
2017-11-27T14:39:37.821Z,1.97
2017-11-27T14:42:07.361Z,1.37
2017-11-27T14:44:35.835Z,1.50
2017-11-27T14:47:04.367Z,1.30
2017-11-27T14:49:32.913Z,1.40
2017-11-27T14:52:01.645Z,1.13
2017-11-27T14:54:30.110Z,1.13
2017-11-27T14:56:58.942Z,1.37
2017-11-27T14:59:28.220Z,1.90
2017-11-27T15:01:56.699Z,1.23
2017-11-27T15:04:26.149Z,1.13
2017-11-27T15:06:54.802Z,1.57
2017-11-27T15:09:24.083Z,1.50
2017-11-27T15:11:53.401Z,1.37
2017-11-27T15:14:23.809Z,1.47
2017-11-27T15:16:52.282Z,1.90
2017-11-27T15:19:20.937Z,1.53
2017-11-27T15:21:49.440Z,1.83
2017-11-27T15:24:17.940Z,1.50
2017-11-27T15:26:46.662Z,1.13
2017-11-27T15:29:15.917Z,1.03
2017-11-27T15:31:44.410Z,0.90
2017-11-27T15:34:13.302Z,1.03
2017-11-27T15:36:42.598Z,1.57
2017-11-27T15:39:12.203Z,1.80
2017-11-27T15:41:40.900Z,3.13
2017-11-27T15:44:09.382Z,1.50
2017-11-27T15:46:37.895Z,1.60
2017-11-27T15:49:06.999Z,0.60
2017-11-27T15:51:35.516Z,1.27
2017-11-27T15:54:03.996Z,1.00
2017-11-27T15:56:32.549Z,1.50
2017-11-27T15:59:02.043Z,1.10
2017-11-27T16:01:30.597Z,0.90
2017-11-27T16:03:59.353Z,1.37
2017-11-27T16:06:27.843Z,0.80
2017-11-27T16:08:56.339Z,1.30
2017-11-27T16:11:24.867Z,1.30
2017-11-27T16:13:53.344Z,1.83
2017-11-27T16:16:21.830Z,1.10
2017-11-27T16:18:50.333Z,1.10
2017-11-27T16:21:18.798Z,0.80
2017-11-27T16:23:48.251Z,1.10
2017-11-27T16:26:17.025Z,1.70
2017-11-27T16:28:45.910Z,1.10
2017-11-27T16:31:14.406Z,0.97
2017-11-27T16:33:43.138Z,0.90
2017-11-27T16:36:11.626Z,1.40
2017-11-27T16:38:40.124Z,0.87
2017-11-27T16:41:08.868Z,1.43
2017-11-27T16:43:38.093Z,0.90
2017-11-27T16:46:06.576Z,1.20
2017-11-27T16:48:35.372Z,1.00
2017-11-27T16:51:03.930Z,1.07
2017-11-27T16:53:32.618Z,0.60
2017-11-27T16:56:01.330Z,0.93
2017-11-27T16:58:29.793Z,1.47
2017-11-27T17:00:58.244Z,1.33
2017-11-27T17:03:27.017Z,0.90
2017-11-27T17:05:55.465Z,1.27
2017-11-27T17:08:23.942Z,1.17
2017-11-27T17:10:52.457Z,0.90
2017-11-27T17:13:20.902Z,1.03
2017-11-27T17:15:49.380Z,0.90
2017-11-27T17:18:18.822Z,1.03
2017-11-27T17:20:47.367Z,1.07
2017-11-27T17:23:15.827Z,1.17
2017-11-27T17:25:44.688Z,0.90
2017-11-27T17:28:13.205Z,0.80
2017-11-27T17:30:41.795Z,0.70
2017-11-27T17:33:10.388Z,0.80
2017-11-27T17:35:38.887Z,1.03
2017-11-27T17:38:12.184Z,1.00
2017-11-27T17:40:40.711Z,1.60
2017-11-27T17:43:10.588Z,1.07
2017-11-27T17:45:39.277Z,1.57
2017-11-27T17:48:07.811Z,0.90
2017-11-27T17:50:36.335Z,1.20
2017-11-27T17:53:05.151Z,1.20
2017-11-27T17:55:34.454Z,1.10
2017-11-27T17:58:02.980Z,1.33
2017-11-27T18:00:31.507Z,1.57
2017-11-27T18:02:59.974Z,0.90
2017-11-27T18:05:28.463Z,1.23
2017-11-27T18:07:57.051Z,1.10
2017-11-27T18:10:25.561Z,1.30
2017-11-27T18:12:54.813Z,1.10
2017-11-27T18:15:23.607Z,0.87
2017-11-27T18:17:52.107Z,0.60
2017-11-27T18:20:20.661Z,1.47
2017-11-27T18:22:49.187Z,0.83
2017-11-27T18:25:18.414Z,1.00
2017-11-27T18:27:46.901Z,1.07
2017-11-27T18:30:15.677Z,0.80
2017-11-27T18:32:44.185Z,1.33
2017-11-27T18:35:12.637Z,1.30
2017-11-27T18:37:41.967Z,1.07
2017-11-27T18:40:10.443Z,1.30
2017-11-27T18:42:38.930Z,1.13
2017-11-27T18:45:08.085Z,1.00
2017-11-27T18:47:36.574Z,1.17
2017-11-27T18:50:05.086Z,1.30
2017-11-27T18:52:33.785Z,1.20
2017-11-27T18:55:02.321Z,1.17
2017-11-27T18:57:30.877Z,1.00
2017-11-27T19:00:00.130Z,1.23
2017-11-27T19:02:28.624Z,1.00
2017-11-27T19:04:57.811Z,1.50
2017-11-27T19:07:26.518Z,0.90
2017-11-27T19:09:55.018Z,1.00
2017-11-27T19:12:23.462Z,0.90
2017-11-27T19:14:52.073Z,0.73
2017-11-27T19:17:20.601Z,0.80
2017-11-27T19:19:49.107Z,1.40
2017-11-27T19:22:17.819Z,1.07
2017-11-27T19:24:46.280Z,1.00
2017-11-27T19:27:15.526Z,0.80
2017-11-27T19:29:44.315Z,0.90
2017-11-27T19:32:13.494Z,0.80
2017-11-27T19:34:41.962Z,0.80
2017-11-27T19:37:10.796Z,0.93
2017-11-27T19:39:39.263Z,0.97
2017-11-27T19:42:08.524Z,1.03
2017-11-27T19:44:36.993Z,1.37
2017-11-27T19:47:05.857Z,1.10
2017-11-27T19:49:34.287Z,1.77
2017-11-27T19:52:02.781Z,1.00
2017-11-27T19:54:31.230Z,2.10
2017-11-27T19:57:01.043Z,1.30
2017-11-27T19:59:30.016Z,1.10
2017-11-27T20:01:58.484Z,1.13
2017-11-27T20:04:26.990Z,2.03
2017-11-27T20:06:55.743Z,1.53
2017-11-27T20:09:24.193Z,1.20
2017-11-27T20:11:52.859Z,1.10
2017-11-27T20:14:21.334Z,1.70
2017-11-27T20:16:50.545Z,2.17
2017-11-27T20:19:19.832Z,1.80
2017-11-27T20:21:48.544Z,1.20
2017-11-27T20:24:17.979Z,1.70
2017-11-27T20:26:47.243Z,1.23
2017-11-27T20:29:15.937Z,0.73
2017-11-27T20:31:44.429Z,1.40
2017-11-27T20:34:13.659Z,1.90
2017-11-27T20:36:42.223Z,1.40
2017-11-27T20:39:10.767Z,1.50
2017-11-27T20:41:39.250Z,2.00
2017-11-27T20:44:07.966Z,1.50
2017-11-27T20:46:36.466Z,1.00
2017-11-27T20:49:05.198Z,1.13
2017-11-27T20:51:33.720Z,1.37
2017-11-27T20:54:02.221Z,1.30
2017-11-27T20:56:30.714Z,1.00
2017-11-27T20:58:59.274Z,1.30
2017-11-27T21:01:28.006Z,2.17
2017-11-27T21:03:57.287Z,1.23
2017-11-27T21:06:25.759Z,0.90
2017-11-27T21:08:54.239Z,1.30
2017-11-27T21:13:57.531Z,0.90
2017-11-27T21:16:25.970Z,1.20
2017-11-27T21:18:54.435Z,0.77
2017-11-27T21:21:23.708Z,1.10
2017-11-27T21:23:52.368Z,0.90
2017-11-27T21:26:21.090Z,0.90
2017-11-27T21:28:49.742Z,1.00
2017-11-27T21:31:18.966Z,1.20
2017-11-27T21:33:47.444Z,1.17
2017-11-27T21:36:15.952Z,1.07
2017-11-27T21:38:45.752Z,0.73
2017-11-27T21:41:14.256Z,1.10
2017-11-27T21:43:42.876Z,0.90
2017-11-27T21:46:12.102Z,0.70
2017-11-27T21:48:40.575Z,0.93
2017-11-27T21:51:10.248Z,1.00
2017-11-27T21:53:38.880Z,0.63
2017-11-27T21:56:07.382Z,1.13
2017-11-27T21:58:35.998Z,0.63
2017-11-27T22:01:04.439Z,0.77
2017-11-27T22:03:32.950Z,1.10
2017-11-27T22:06:02.698Z,0.70
2017-11-27T22:08:31.141Z,0.90
2017-11-27T22:10:59.635Z,0.87
2017-11-27T22:13:29.084Z,1.03
2017-11-27T22:15:57.698Z,0.70
2017-11-27T22:18:26.173Z,0.70
2017-11-27T22:20:54.658Z,0.70
2017-11-27T22:23:23.158Z,1.30
2017-11-27T22:25:51.802Z,1.03
2017-11-27T22:28:20.457Z,1.27
2017-11-27T22:30:49.741Z,1.10
2017-11-27T22:33:19.089Z,0.77
2017-11-27T22:35:47.837Z,0.70
2017-11-27T22:38:17.140Z,1.23
2017-11-27T22:40:46.847Z,0.83
2017-11-27T22:43:15.390Z,1.03
2017-11-27T22:45:43.880Z,1.07
2017-11-27T22:48:13.097Z,0.93
2017-11-27T22:50:42.408Z,0.90
2017-11-27T22:53:11.838Z,0.73
2017-11-27T22:55:40.286Z,0.97
2017-11-27T22:58:10.099Z,0.87
2017-11-27T23:00:39.270Z,1.20
2017-11-27T23:03:07.739Z,1.17
2017-11-27T23:05:36.575Z,0.70
2017-11-27T23:08:06.077Z,0.73
2017-11-27T23:10:34.586Z,1.10
2017-11-27T23:13:03.075Z,0.70
2017-11-27T23:15:31.586Z,0.80
2017-11-27T23:18:00.121Z,0.50
2017-11-27T23:20:28.797Z,0.83
2017-11-27T23:22:57.979Z,0.77
2017-11-27T23:25:26.441Z,0.80
2017-11-27T23:27:55.057Z,0.67
2017-11-27T23:30:23.851Z,0.70
2017-11-27T23:32:53.049Z,0.90
2017-11-27T23:35:21.736Z,1.33
2017-11-27T23:37:50.277Z,1.17
2017-11-27T23:40:18.718Z,0.90
2017-11-27T23:42:47.331Z,1.10
2017-11-27T23:45:15.827Z,0.93
2017-11-27T23:47:44.267Z,0.60
2017-11-27T23:50:12.869Z,0.77
2017-11-27T23:52:41.248Z,0.77
2017-11-27T23:55:10.227Z,0.77
2017-11-27T23:57:38.782Z,1.30
